sensor_id;sensor_type;location;lat;lon;timestamp;P1;durP1;ratioP1;P2;durP2;ratioP2
56736;SDS011;42618;51.226;4.910;2023-04-03T00:01:37;17.77;;;9.50;;
56736;SDS011;42618;51.226;4.910;2023-04-03T00:04:05;18.10;;;9.20;;
56736;SDS011;42618;51.226;4.910;2023-04-03T00:06:31;16.45;;;8.93;;
56736;SDS011;42618;51.226;4.910;2023-04-03T00:08:58;16.67;;;8.43;;
56736;SDS011;42618;51.226;4.910;2023-04-03T00:11:25;14.02;;;6.88;;
56736;SDS011;42618;51.226;4.910;2023-04-03T00:13:52;14.18;;;7.10;;
56736;SDS011;42618;51.226;4.910;2023-04-03T00:16:19;13.52;;;6.68;;
56736;SDS011;42618;51.226;4.910;2023-04-03T00:18:45;13.23;;;6.57;;
56736;SDS011;42618;51.226;4.910;2023-04-03T00:21:12;9.40;;;6.35;;
56736;SDS011;42618;51.226;4.910;2023-04-03T00:23:39;10.10;;;6.50;;
56736;SDS011;42618;51.226;4.910;2023-04-03T00:26:06;12.38;;;6.55;;
56736;SDS011;42618;51.226;4.910;2023-04-03T00:28:32;13.25;;;6.32;;
56736;SDS011;42618;51.226;4.910;2023-04-03T00:30:59;10.95;;;6.57;;
56736;SDS011;42618;51.226;4.910;2023-04-03T00:33:26;10.82;;;6.22;;
56736;SDS011;42618;51.226;4.910;2023-04-03T00:35:52;14.07;;;7.65;;
56736;SDS011;42618;51.226;4.910;2023-04-03T00:38:19;11.98;;;6.85;;
56736;SDS011;42618;51.226;4.910;2023-04-03T00:40:47;12.90;;;7.27;;
56736;SDS011;42618;51.226;4.910;2023-04-03T00:45:42;12.50;;;7.25;;
56736;SDS011;42618;51.226;4.910;2023-04-03T00:48:10;12.60;;;7.30;;
56736;SDS011;42618;51.226;4.910;2023-04-03T00:50:39;14.55;;;7.00;;
56736;SDS011;42618;51.226;4.910;2023-04-03T00:53:06;19.02;;;7.43;;
56736;SDS011;42618;51.226;4.910;2023-04-03T00:55:35;12.18;;;6.30;;
56736;SDS011;42618;51.226;4.910;2023-04-03T00:58:02;11.45;;;6.57;;
56736;SDS011;42618;51.226;4.910;2023-04-03T01:00:29;12.48;;;6.85;;
56736;SDS011;42618;51.226;4.910;2023-04-03T01:02:56;13.33;;;6.90;;
56736;SDS011;42618;51.226;4.910;2023-04-03T01:05:24;16.45;;;7.20;;
56736;SDS011;42618;51.226;4.910;2023-04-03T01:07:50;12.38;;;6.28;;
56736;SDS011;42618;51.226;4.910;2023-04-03T01:10:17;12.40;;;5.97;;
56736;SDS011;42618;51.226;4.910;2023-04-03T01:12:47;13.48;;;6.18;;
56736;SDS011;42618;51.226;4.910;2023-04-03T01:17:42;13.87;;;6.80;;
56736;SDS011;42618;51.226;4.910;2023-04-03T01:28:05;21.08;;;6.45;;
56736;SDS011;42618;51.226;4.910;2023-04-03T01:30:38;12.10;;;6.97;;
56736;SDS011;42618;51.226;4.910;2023-04-03T01:33:08;8.20;;;6.03;;
56736;SDS011;42618;51.226;4.910;2023-04-03T01:35:35;10.77;;;6.22;;
56736;SDS011;42618;51.226;4.910;2023-04-03T01:38:01;10.82;;;5.72;;
56736;SDS011;42618;51.226;4.910;2023-04-03T01:40:28;9.35;;;5.53;;
56736;SDS011;42618;51.226;4.910;2023-04-03T01:42:55;13.70;;;6.03;;
56736;SDS011;42618;51.226;4.910;2023-04-03T01:45:22;9.15;;;6.00;;
56736;SDS011;42618;51.226;4.910;2023-04-03T01:47:48;9.95;;;5.88;;
56736;SDS011;42618;51.226;4.910;2023-04-03T01:50:15;9.07;;;5.82;;
56736;SDS011;42618;51.226;4.910;2023-04-03T01:55:10;9.23;;;5.65;;
56736;SDS011;42618;51.226;4.910;2023-04-03T02:00:04;13.10;;;7.00;;
56736;SDS011;42618;51.226;4.910;2023-04-03T02:02:38;9.00;;;6.45;;
56736;SDS011;42618;51.226;4.910;2023-04-03T02:05:05;10.57;;;6.70;;
56736;SDS011;42618;51.226;4.910;2023-04-03T02:07:32;10.52;;;7.00;;
56736;SDS011;42618;51.226;4.910;2023-04-03T02:09:58;14.70;;;7.28;;
56736;SDS011;42618;51.226;4.910;2023-04-03T02:12:25;10.90;;;6.68;;
56736;SDS011;42618;51.226;4.910;2023-04-03T02:14:52;12.40;;;7.40;;
56736;SDS011;42618;51.226;4.910;2023-04-03T02:17:19;11.07;;;6.65;;
56736;SDS011;42618;51.226;4.910;2023-04-03T02:19:46;9.15;;;6.82;;
56736;SDS011;42618;51.226;4.910;2023-04-03T02:22:13;10.35;;;6.93;;
56736;SDS011;42618;51.226;4.910;2023-04-03T02:24:39;11.73;;;6.57;;
56736;SDS011;42618;51.226;4.910;2023-04-03T02:27:06;12.48;;;6.70;;
56736;SDS011;42618;51.226;4.910;2023-04-03T02:29:33;12.43;;;7.80;;
56736;SDS011;42618;51.226;4.910;2023-04-03T02:32:00;11.68;;;6.78;;
56736;SDS011;42618;51.226;4.910;2023-04-03T02:34:28;10.93;;;6.70;;
56736;SDS011;42618;51.226;4.910;2023-04-03T02:36:57;12.05;;;6.10;;
56736;SDS011;42618;51.226;4.910;2023-04-03T02:39:24;12.60;;;6.07;;
56736;SDS011;42618;51.226;4.910;2023-04-03T02:41:51;10.32;;;6.13;;
56736;SDS011;42618;51.226;4.910;2023-04-03T02:44:22;10.55;;;6.00;;
56736;SDS011;42618;51.226;4.910;2023-04-03T02:46:51;9.43;;;5.82;;
56736;SDS011;42618;51.226;4.910;2023-04-03T02:49:17;10.90;;;6.15;;
56736;SDS011;42618;51.226;4.910;2023-04-03T02:51:44;12.18;;;6.45;;
56736;SDS011;42618;51.226;4.910;2023-04-03T02:54:12;11.88;;;6.60;;
56736;SDS011;42618;51.226;4.910;2023-04-03T02:56:43;10.48;;;6.50;;
56736;SDS011;42618;51.226;4.910;2023-04-03T02:59:09;10.43;;;6.07;;
56736;SDS011;42618;51.226;4.910;2023-04-03T03:01:38;13.75;;;6.38;;
56736;SDS011;42618;51.226;4.910;2023-04-03T03:04:04;9.32;;;5.80;;
56736;SDS011;42618;51.226;4.910;2023-04-03T03:06:31;10.05;;;5.78;;
56736;SDS011;42618;51.226;4.910;2023-04-03T03:08:58;8.15;;;5.55;;
56736;SDS011;42618;51.226;4.910;2023-04-03T03:11:25;12.50;;;5.95;;
56736;SDS011;42618;51.226;4.910;2023-04-03T03:13:52;12.40;;;5.50;;
56736;SDS011;42618;51.226;4.910;2023-04-03T03:16:18;12.05;;;6.10;;
56736;SDS011;42618;51.226;4.910;2023-04-03T03:18:45;11.13;;;5.57;;
56736;SDS011;42618;51.226;4.910;2023-04-03T03:21:11;8.75;;;5.13;;
56736;SDS011;42618;51.226;4.910;2023-04-03T03:23:38;10.43;;;5.53;;
56736;SDS011;42618;51.226;4.910;2023-04-03T03:26:06;8.70;;;6.07;;
56736;SDS011;42618;51.226;4.910;2023-04-03T03:28:34;8.80;;;6.05;;
56736;SDS011;42618;51.226;4.910;2023-04-03T03:31:04;10.38;;;6.13;;
56736;SDS011;42618;51.226;4.910;2023-04-03T03:35:59;12.00;;;7.13;;
56736;SDS011;42618;51.226;4.910;2023-04-03T03:38:26;9.70;;;6.90;;
56736;SDS011;42618;51.226;4.910;2023-04-03T03:40:53;10.95;;;7.60;;
56736;SDS011;42618;51.226;4.910;2023-04-03T03:43:22;12.05;;;7.60;;
56736;SDS011;42618;51.226;4.910;2023-04-03T03:45:51;13.05;;;7.72;;
56736;SDS011;42618;51.226;4.910;2023-04-03T03:48:18;11.88;;;7.95;;
56736;SDS011;42618;51.226;4.910;2023-04-03T03:50:45;12.20;;;6.82;;
56736;SDS011;42618;51.226;4.910;2023-04-03T03:53:12;10.18;;;7.32;;
56736;SDS011;42618;51.226;4.910;2023-04-03T03:55:39;10.73;;;7.18;;
56736;SDS011;42618;51.226;4.910;2023-04-03T03:58:06;11.55;;;7.05;;
56736;SDS011;42618;51.226;4.910;2023-04-03T04:00:34;10.32;;;7.30;;
56736;SDS011;42618;51.226;4.910;2023-04-03T04:05:30;12.32;;;7.82;;
56736;SDS011;42618;51.226;4.910;2023-04-03T04:07:58;11.85;;;7.82;;
56736;SDS011;42618;51.226;4.910;2023-04-03T04:10:26;10.52;;;7.45;;
56736;SDS011;42618;51.226;4.910;2023-04-03T04:12:53;11.63;;;8.15;;
56736;SDS011;42618;51.226;4.910;2023-04-03T04:15:23;13.60;;;7.97;;
56736;SDS011;42618;51.226;4.910;2023-04-03T04:17:53;11.18;;;7.50;;
56736;SDS011;42618;51.226;4.910;2023-04-03T04:20:20;11.90;;;7.40;;
56736;SDS011;42618;51.226;4.910;2023-04-03T04:22:47;11.88;;;6.93;;
56736;SDS011;42618;51.226;4.910;2023-04-03T04:25:15;9.88;;;6.72;;
56736;SDS011;42618;51.226;4.910;2023-04-03T04:27:42;13.57;;;6.90;;
56736;SDS011;42618;51.226;4.910;2023-04-03T04:30:12;9.27;;;6.43;;
56736;SDS011;42618;51.226;4.910;2023-04-03T04:32:39;11.40;;;7.43;;
56736;SDS011;42618;51.226;4.910;2023-04-03T04:35:06;11.77;;;6.70;;
56736;SDS011;42618;51.226;4.910;2023-04-03T04:37:38;10.48;;;6.55;;
56736;SDS011;42618;51.226;4.910;2023-04-03T04:40:05;13.88;;;6.85;;
56736;SDS011;42618;51.226;4.910;2023-04-03T04:42:32;12.50;;;6.90;;
56736;SDS011;42618;51.226;4.910;2023-04-03T04:44:59;12.32;;;6.97;;
56736;SDS011;42618;51.226;4.910;2023-04-03T04:49:54;12.85;;;8.38;;
56736;SDS011;42618;51.226;4.910;2023-04-03T04:52:21;15.03;;;9.30;;
56736;SDS011;42618;51.226;4.910;2023-04-03T04:54:47;15.52;;;9.30;;
56736;SDS011;42618;51.226;4.910;2023-04-03T04:57:14;14.65;;;9.30;;
56736;SDS011;42618;51.226;4.910;2023-04-03T04:59:42;13.38;;;8.18;;
56736;SDS011;42618;51.226;4.910;2023-04-03T05:02:09;11.43;;;7.68;;
56736;SDS011;42618;51.226;4.910;2023-04-03T05:04:37;12.88;;;8.60;;
56736;SDS011;42618;51.226;4.910;2023-04-03T05:07:10;14.13;;;8.05;;
56736;SDS011;42618;51.226;4.910;2023-04-03T05:09:37;13.48;;;8.63;;
56736;SDS011;42618;51.226;4.910;2023-04-03T05:12:04;13.50;;;8.93;;
56736;SDS011;42618;51.226;4.910;2023-04-03T05:14:37;11.85;;;7.82;;
56736;SDS011;42618;51.226;4.910;2023-04-03T05:17:06;15.48;;;7.93;;
56736;SDS011;42618;51.226;4.910;2023-04-03T05:19:37;13.18;;;7.97;;
56736;SDS011;42618;51.226;4.910;2023-04-03T05:22:05;12.43;;;7.22;;
56736;SDS011;42618;51.226;4.910;2023-04-03T05:24:32;14.35;;;7.88;;
56736;SDS011;42618;51.226;4.910;2023-04-03T05:27:00;12.68;;;7.80;;
56736;SDS011;42618;51.226;4.910;2023-04-03T05:29:27;15.77;;;7.68;;
56736;SDS011;42618;51.226;4.910;2023-04-03T05:31:56;15.90;;;8.35;;
56736;SDS011;42618;51.226;4.910;2023-04-03T05:34:24;16.45;;;8.98;;
56736;SDS011;42618;51.226;4.910;2023-04-03T05:36:53;11.15;;;7.63;;
56736;SDS011;42618;51.226;4.910;2023-04-03T05:39:20;13.95;;;7.68;;
56736;SDS011;42618;51.226;4.910;2023-04-03T05:41:47;16.70;;;7.23;;
56736;SDS011;42618;51.226;4.910;2023-04-03T05:44:14;14.55;;;7.75;;
56736;SDS011;42618;51.226;4.910;2023-04-03T05:46:43;11.65;;;7.72;;
56736;SDS011;42618;51.226;4.910;2023-04-03T05:49:11;12.10;;;7.60;;
56736;SDS011;42618;51.226;4.910;2023-04-03T05:51:38;13.82;;;7.90;;
56736;SDS011;42618;51.226;4.910;2023-04-03T05:54:31;12.40;;;7.30;;
56736;SDS011;42618;51.226;4.910;2023-04-03T05:57:14;11.55;;;6.60;;
56736;SDS011;42618;51.226;4.910;2023-04-03T05:59:42;16.88;;;6.95;;
56736;SDS011;42618;51.226;4.910;2023-04-03T06:02:10;13.60;;;7.25;;
56736;SDS011;42618;51.226;4.910;2023-04-03T06:04:37;9.18;;;6.13;;
56736;SDS011;42618;51.226;4.910;2023-04-03T06:07:04;14.35;;;6.38;;
56736;SDS011;42618;51.226;4.910;2023-04-03T06:09:30;7.93;;;5.57;;
56736;SDS011;42618;51.226;4.910;2023-04-03T06:11:58;9.32;;;5.65;;
56736;SDS011;42618;51.226;4.910;2023-04-03T06:14:26;10.57;;;5.53;;
56736;SDS011;42618;51.226;4.910;2023-04-03T06:16:53;11.17;;;5.43;;
56736;SDS011;42618;51.226;4.910;2023-04-03T06:19:20;12.68;;;5.82;;
56736;SDS011;42618;51.226;4.910;2023-04-03T06:21:50;7.07;;;4.35;;
56736;SDS011;42618;51.226;4.910;2023-04-03T06:24:17;9.18;;;4.82;;
56736;SDS011;42618;51.226;4.910;2023-04-03T06:26:44;14.02;;;4.72;;
56736;SDS011;42618;51.226;4.910;2023-04-03T06:29:12;9.25;;;4.75;;
56736;SDS011;42618;51.226;4.910;2023-04-03T06:31:38;9.15;;;4.00;;
56736;SDS011;42618;51.226;4.910;2023-04-03T06:34:06;9.40;;;4.40;;
56736;SDS011;42618;51.226;4.910;2023-04-03T06:36:35;11.20;;;4.30;;
56736;SDS011;42618;51.226;4.910;2023-04-03T06:39:02;8.50;;;4.35;;
56736;SDS011;42618;51.226;4.910;2023-04-03T06:41:29;10.77;;;4.28;;
56736;SDS011;42618;51.226;4.910;2023-04-03T06:43:56;7.72;;;3.85;;
56736;SDS011;42618;51.226;4.910;2023-04-03T06:46:25;7.00;;;3.70;;
56736;SDS011;42618;51.226;4.910;2023-04-03T06:48:52;5.95;;;3.72;;
56736;SDS011;42618;51.226;4.910;2023-04-03T06:51:20;8.13;;;4.15;;
56736;SDS011;42618;51.226;4.910;2023-04-03T06:53:48;9.98;;;3.42;;
56736;SDS011;42618;51.226;4.910;2023-04-03T06:56:15;11.30;;;2.80;;
56736;SDS011;42618;51.226;4.910;2023-04-03T06:58:42;11.70;;;2.33;;
56736;SDS011;42618;51.226;4.910;2023-04-03T07:01:09;6.13;;;3.07;;
56736;SDS011;42618;51.226;4.910;2023-04-03T07:03:36;8.48;;;3.05;;
56736;SDS011;42618;51.226;4.910;2023-04-03T07:06:03;8.15;;;3.22;;
56736;SDS011;42618;51.226;4.910;2023-04-03T07:08:30;6.60;;;2.87;;
56736;SDS011;42618;51.226;4.910;2023-04-03T07:10:57;9.15;;;2.70;;
56736;SDS011;42618;51.226;4.910;2023-04-03T07:13:23;8.68;;;2.70;;
56736;SDS011;42618;51.226;4.910;2023-04-03T07:15:50;5.93;;;2.28;;
56736;SDS011;42618;51.226;4.910;2023-04-03T07:18:17;4.00;;;1.90;;
56736;SDS011;42618;51.226;4.910;2023-04-03T07:20:44;4.20;;;2.17;;
56736;SDS011;42618;51.226;4.910;2023-04-03T07:23:10;7.53;;;2.40;;
56736;SDS011;42618;51.226;4.910;2023-04-03T07:25:41;8.15;;;3.05;;
56736;SDS011;42618;51.226;4.910;2023-04-03T07:28:08;4.72;;;1.98;;
56736;SDS011;42618;51.226;4.910;2023-04-03T07:30:35;6.38;;;2.13;;
56736;SDS011;42618;51.226;4.910;2023-04-03T07:33:08;6.93;;;2.22;;
56736;SDS011;42618;51.226;4.910;2023-04-03T07:35:35;4.40;;;1.83;;
56736;SDS011;42618;51.226;4.910;2023-04-03T07:38:02;4.70;;;1.63;;
56736;SDS011;42618;51.226;4.910;2023-04-03T07:40:29;7.55;;;1.80;;
56736;SDS011;42618;51.226;4.910;2023-04-03T07:42:55;5.35;;;2.00;;
56736;SDS011;42618;51.226;4.910;2023-04-03T07:45:23;4.28;;;1.63;;
56736;SDS011;42618;51.226;4.910;2023-04-03T07:47:50;6.87;;;1.70;;
56736;SDS011;42618;51.226;4.910;2023-04-03T07:50:18;4.78;;;1.73;;
56736;SDS011;42618;51.226;4.910;2023-04-03T07:52:44;6.63;;;1.77;;
56736;SDS011;42618;51.226;4.910;2023-04-03T07:55:12;6.05;;;1.65;;
56736;SDS011;42618;51.226;4.910;2023-04-03T07:57:38;5.30;;;1.50;;
56736;SDS011;42618;51.226;4.910;2023-04-03T08:00:06;3.63;;;1.30;;
56736;SDS011;42618;51.226;4.910;2023-04-03T08:02:39;4.05;;;1.50;;
56736;SDS011;42618;51.226;4.910;2023-04-03T08:05:06;5.65;;;1.30;;
56736;SDS011;42618;51.226;4.910;2023-04-03T08:07:33;5.45;;;1.38;;
56736;SDS011;42618;51.226;4.910;2023-04-03T08:09:59;7.57;;;2.88;;
56736;SDS011;42618;51.226;4.910;2023-04-03T08:12:26;12.57;;;4.45;;
56736;SDS011;42618;51.226;4.910;2023-04-03T08:14:55;9.45;;;2.78;;
56736;SDS011;42618;51.226;4.910;2023-04-03T08:17:21;5.00;;;1.40;;
56736;SDS011;42618;51.226;4.910;2023-04-03T08:19:48;3.72;;;1.00;;
56736;SDS011;42618;51.226;4.910;2023-04-03T08:22:15;5.20;;;1.23;;
56736;SDS011;42618;51.226;4.910;2023-04-03T08:24:42;5.53;;;1.23;;
56736;SDS011;42618;51.226;4.910;2023-04-03T08:27:24;2.30;;;0.98;;
56736;SDS011;42618;51.226;4.910;2023-04-03T08:29:51;6.60;;;1.02;;
56736;SDS011;42618;51.226;4.910;2023-04-03T08:32:18;4.13;;;1.35;;
56736;SDS011;42618;51.226;4.910;2023-04-03T08:34:45;2.57;;;0.93;;
56736;SDS011;42618;51.226;4.910;2023-04-03T08:37:12;15.45;;;5.50;;
56736;SDS011;42618;51.226;4.910;2023-04-03T08:39:39;6.13;;;2.90;;
56736;SDS011;42618;51.226;4.910;2023-04-03T08:42:12;2.67;;;0.85;;
56736;SDS011;42618;51.226;4.910;2023-04-03T08:44:53;5.90;;;1.38;;
56736;SDS011;42618;51.226;4.910;2023-04-03T08:49:51;3.42;;;1.08;;
56736;SDS011;42618;51.226;4.910;2023-04-03T08:57:17;7.93;;;1.00;;
56736;SDS011;42618;51.226;4.910;2023-04-03T08:59:46;3.95;;;0.90;;
56736;SDS011;42618;51.226;4.910;2023-04-03T09:02:21;2.88;;;1.40;;
56736;SDS011;42618;51.226;4.910;2023-04-03T09:04:49;4.43;;;1.00;;
56736;SDS011;42618;51.226;4.910;2023-04-03T09:07:18;6.65;;;1.08;;
56736;SDS011;42618;51.226;4.910;2023-04-03T09:09:47;2.83;;;0.60;;
56736;SDS011;42618;51.226;4.910;2023-04-03T09:12:27;2.40;;;0.75;;
56736;SDS011;42618;51.226;4.910;2023-04-03T09:17:35;4.38;;;0.80;;
56736;SDS011;42618;51.226;4.910;2023-04-03T09:22:51;19.23;;;6.30;;
56736;SDS011;42618;51.226;4.910;2023-04-03T09:25:23;7.05;;;1.88;;
56736;SDS011;42618;51.226;4.910;2023-04-03T09:27:50;6.05;;;1.13;;
56736;SDS011;42618;51.226;4.910;2023-04-03T09:30:21;2.53;;;0.98;;
56736;SDS011;42618;51.226;4.910;2023-04-03T09:32:51;2.05;;;0.90;;
56736;SDS011;42618;51.226;4.910;2023-04-03T09:35:19;3.47;;;0.82;;
56736;SDS011;42618;51.226;4.910;2023-04-03T09:37:59;5.32;;;0.75;;
56736;SDS011;42618;51.226;4.910;2023-04-03T09:42:53;4.13;;;0.80;;
56736;SDS011;42618;51.226;4.910;2023-04-03T09:45:33;3.58;;;0.90;;
56736;SDS011;42618;51.226;4.910;2023-04-03T09:53:33;1.15;;;0.60;;
56736;SDS011;42618;51.226;4.910;2023-04-03T09:56:02;3.67;;;0.90;;
56736;SDS011;42618;51.226;4.910;2023-04-03T09:58:39;2.70;;;0.80;;
56736;SDS011;42618;51.226;4.910;2023-04-03T10:04:23;3.53;;;0.88;;
56736;SDS011;42618;51.226;4.910;2023-04-03T10:06:52;2.72;;;0.68;;
56736;SDS011;42618;51.226;4.910;2023-04-03T10:09:23;2.88;;;0.50;;
56736;SDS011;42618;51.226;4.910;2023-04-03T10:11:56;2.40;;;0.32;;
56736;SDS011;42618;51.226;4.910;2023-04-03T10:14:23;4.20;;;0.65;;
56736;SDS011;42618;51.226;4.910;2023-04-03T10:16:59;1.05;;;0.30;;
56736;SDS011;42618;51.226;4.910;2023-04-03T10:22:20;1.23;;;0.40;;
56736;SDS011;42618;51.226;4.910;2023-04-03T10:25:00;1.33;;;0.30;;
56736;SDS011;42618;51.226;4.910;2023-04-03T10:28:15;1.27;;;0.30;;
56736;SDS011;42618;51.226;4.910;2023-04-03T10:30:21;0.28;;;0.20;;
56736;SDS011;42618;51.226;4.910;2023-04-03T10:40:27;1.60;;;0.40;;
56736;SDS011;42618;51.226;4.910;2023-04-03T10:43:22;1.77;;;0.30;;
56736;SDS011;42618;51.226;4.910;2023-04-03T10:46:09;1.35;;;0.30;;
56736;SDS011;42618;51.226;4.910;2023-04-03T10:51:22;0.70;;;0.20;;
56736;SDS011;42618;51.226;4.910;2023-04-03T10:53:56;1.40;;;0.25;;
56736;SDS011;42618;51.226;4.910;2023-04-03T10:56:39;1.35;;;0.32;;
56736;SDS011;42618;51.226;4.910;2023-04-03T11:01:53;0.93;;;0.20;;
56736;SDS011;42618;51.226;4.910;2023-04-03T11:04:22;1.10;;;0.30;;
56736;SDS011;42618;51.226;4.910;2023-04-03T11:06:52;1.17;;;0.30;;
56736;SDS011;42618;51.226;4.910;2023-04-03T11:11:49;2.05;;;0.32;;
56736;SDS011;42618;51.226;4.910;2023-04-03T11:14:21;2.17;;;0.30;;
56736;SDS011;42618;51.226;4.910;2023-04-03T11:16:59;2.33;;;0.50;;
56736;SDS011;42618;51.226;4.910;2023-04-03T11:19:35;0.77;;;0.20;;
56736;SDS011;42618;51.226;4.910;2023-04-03T11:22:04;1.95;;;0.20;;
56736;SDS011;42618;51.226;4.910;2023-04-03T11:24:36;3.03;;;0.30;;
56736;SDS011;42618;51.226;4.910;2023-04-03T11:27:04;1.30;;;0.30;;
56736;SDS011;42618;51.226;4.910;2023-04-03T11:29:32;1.13;;;0.40;;
56736;SDS011;42618;51.226;4.910;2023-04-03T11:32:07;2.83;;;0.30;;
56736;SDS011;42618;51.226;4.910;2023-04-03T11:34:41;1.17;;;0.35;;
56736;SDS011;42618;51.226;4.910;2023-04-03T11:37:28;2.65;;;0.75;;
56736;SDS011;42618;51.226;4.910;2023-04-03T11:39:56;1.00;;;0.38;;
56736;SDS011;42618;51.226;4.910;2023-04-03T11:42:25;2.13;;;0.35;;
56736;SDS011;42618;51.226;4.910;2023-04-03T11:47:59;6.45;;;1.95;;
56736;SDS011;42618;51.226;4.910;2023-04-03T11:50:45;3.15;;;0.90;;
56736;SDS011;42618;51.226;4.910;2023-04-03T11:53:25;1.35;;;0.50;;
56736;SDS011;42618;51.226;4.910;2023-04-03T11:55:54;1.48;;;0.40;;
56736;SDS011;42618;51.226;4.910;2023-04-03T11:58:22;2.88;;;0.30;;
56736;SDS011;42618;51.226;4.910;2023-04-03T12:05:56;0.65;;;0.40;;
56736;SDS011;42618;51.226;4.910;2023-04-03T12:08:27;1.98;;;0.45;;
56736;SDS011;42618;51.226;4.910;2023-04-03T12:16:04;2.15;;;0.52;;
56736;SDS011;42618;51.226;4.910;2023-04-03T12:18:44;1.13;;;0.57;;
56736;SDS011;42618;51.226;4.910;2023-04-03T12:21:12;1.27;;;0.40;;
56736;SDS011;42618;51.226;4.910;2023-04-03T12:26:26;3.03;;;0.40;;
56736;SDS011;42618;51.226;4.910;2023-04-03T12:34:47;1.35;;;0.45;;
56736;SDS011;42618;51.226;4.910;2023-04-03T12:45:40;2.55;;;0.52;;
56736;SDS011;42618;51.226;4.910;2023-04-03T12:48:10;1.60;;;0.43;;
56736;SDS011;42618;51.226;4.910;2023-04-03T12:50:38;2.33;;;0.40;;
56736;SDS011;42618;51.226;4.910;2023-04-03T12:55:33;3.85;;;0.47;;
56736;SDS011;42618;51.226;4.910;2023-04-03T13:00:46;2.83;;;0.40;;
56736;SDS011;42618;51.226;4.910;2023-04-03T13:03:22;2.03;;;0.40;;
56736;SDS011;42618;51.226;4.910;2023-04-03T13:05:50;1.95;;;0.30;;
56736;SDS011;42618;51.226;4.910;2023-04-03T13:08:17;1.58;;;0.57;;
56736;SDS011;42618;51.226;4.910;2023-04-03T13:10:56;1.95;;;0.45;;
56736;SDS011;42618;51.226;4.910;2023-04-03T13:13:24;3.58;;;0.50;;
56736;SDS011;42618;51.226;4.910;2023-04-03T13:15:52;2.95;;;0.40;;
56736;SDS011;42618;51.226;4.910;2023-04-03T13:18:30;0.85;;;0.40;;
56736;SDS011;42618;51.226;4.910;2023-04-03T13:21:04;0.80;;;0.30;;
56736;SDS011;42618;51.226;4.910;2023-04-03T13:23:33;0.88;;;0.45;;
56736;SDS011;42618;51.226;4.910;2023-04-03T13:26:00;2.30;;;0.40;;
56736;SDS011;42618;51.226;4.910;2023-04-03T13:28:30;1.00;;;0.30;;
56736;SDS011;42618;51.226;4.910;2023-04-03T13:33:29;1.90;;;0.60;;
56736;SDS011;42618;51.226;4.910;2023-04-03T13:36:05;2.08;;;0.47;;
56736;SDS011;42618;51.226;4.910;2023-04-03T13:38:33;1.38;;;0.40;;
56736;SDS011;42618;51.226;4.910;2023-04-03T13:41:01;2.83;;;0.50;;
56736;SDS011;42618;51.226;4.910;2023-04-03T13:43:32;1.63;;;0.50;;
56736;SDS011;42618;51.226;4.910;2023-04-03T13:48:35;0.90;;;0.32;;
56736;SDS011;42618;51.226;4.910;2023-04-03T13:51:12;1.20;;;0.30;;
56736;SDS011;42618;51.226;4.910;2023-04-03T13:53:44;1.40;;;0.57;;
56736;SDS011;42618;51.226;4.910;2023-04-03T13:56:23;1.05;;;0.30;;
56736;SDS011;42618;51.226;4.910;2023-04-03T13:59:06;1.02;;;0.30;;
56736;SDS011;42618;51.226;4.910;2023-04-03T14:01:46;1.27;;;0.28;;
56736;SDS011;42618;51.226;4.910;2023-04-03T14:04:17;6.20;;;0.88;;
56736;SDS011;42618;51.226;4.910;2023-04-03T14:06:45;3.20;;;0.60;;
56736;SDS011;42618;51.226;4.910;2023-04-03T14:09:12;0.98;;;0.50;;
56736;SDS011;42618;51.226;4.910;2023-04-03T14:11:39;1.50;;;0.50;;
56736;SDS011;42618;51.226;4.910;2023-04-03T14:14:11;0.85;;;0.38;;
56736;SDS011;42618;51.226;4.910;2023-04-03T14:16:40;1.67;;;0.40;;
56736;SDS011;42618;51.226;4.910;2023-04-03T14:19:09;1.88;;;0.40;;
56736;SDS011;42618;51.226;4.910;2023-04-03T14:21:40;1.95;;;0.60;;
56736;SDS011;42618;51.226;4.910;2023-04-03T14:24:07;3.78;;;0.50;;
56736;SDS011;42618;51.226;4.910;2023-04-03T14:26:34;1.15;;;0.45;;
56736;SDS011;42618;51.226;4.910;2023-04-03T14:29:00;1.17;;;0.47;;
56736;SDS011;42618;51.226;4.910;2023-04-03T14:31:27;3.03;;;0.60;;
56736;SDS011;42618;51.226;4.910;2023-04-03T14:33:54;3.67;;;0.38;;
56736;SDS011;42618;51.226;4.910;2023-04-03T14:36:21;3.40;;;0.60;;
56736;SDS011;42618;51.226;4.910;2023-04-03T14:38:49;2.47;;;0.50;;
56736;SDS011;42618;51.226;4.910;2023-04-03T14:41:17;4.67;;;0.50;;
56736;SDS011;42618;51.226;4.910;2023-04-03T14:43:44;1.27;;;0.50;;
56736;SDS011;42618;51.226;4.910;2023-04-03T14:46:13;1.50;;;0.60;;
56736;SDS011;42618;51.226;4.910;2023-04-03T14:48:40;5.95;;;0.63;;
56736;SDS011;42618;51.226;4.910;2023-04-03T14:51:08;1.38;;;0.50;;
56736;SDS011;42618;51.226;4.910;2023-04-03T14:53:36;2.13;;;0.50;;
56736;SDS011;42618;51.226;4.910;2023-04-03T14:56:09;1.55;;;0.57;;
56736;SDS011;42618;51.226;4.910;2023-04-03T14:58:37;6.05;;;0.60;;
56736;SDS011;42618;51.226;4.910;2023-04-03T15:01:03;1.40;;;0.40;;
56736;SDS011;42618;51.226;4.910;2023-04-03T15:03:30;1.75;;;0.40;;
56736;SDS011;42618;51.226;4.910;2023-04-03T15:05:57;3.80;;;0.60;;
56736;SDS011;42618;51.226;4.910;2023-04-03T15:10:52;2.33;;;0.50;;
56736;SDS011;42618;51.226;4.910;2023-04-03T15:13:22;1.77;;;0.80;;
56736;SDS011;42618;51.226;4.910;2023-04-03T15:15:49;3.60;;;0.98;;
56736;SDS011;42618;51.226;4.910;2023-04-03T15:18:18;5.65;;;2.20;;
56736;SDS011;42618;51.226;4.910;2023-04-03T15:20:45;2.53;;;0.80;;
56736;SDS011;42618;51.226;4.910;2023-04-03T15:23:12;2.28;;;0.98;;
56736;SDS011;42618;51.226;4.910;2023-04-03T15:25:39;0.98;;;0.60;;
56736;SDS011;42618;51.226;4.910;2023-04-03T15:28:06;3.83;;;0.60;;
56736;SDS011;42618;51.226;4.910;2023-04-03T15:30:33;1.38;;;0.47;;
56736;SDS011;42618;51.226;4.910;2023-04-03T15:33:02;2.88;;;0.70;;
56736;SDS011;42618;51.226;4.910;2023-04-03T15:35:29;1.33;;;0.60;;
56736;SDS011;42618;51.226;4.910;2023-04-03T15:37:56;1.73;;;0.60;;
56736;SDS011;42618;51.226;4.910;2023-04-03T15:40:22;1.33;;;0.77;;
56736;SDS011;42618;51.226;4.910;2023-04-03T15:42:49;6.03;;;0.68;;
56736;SDS011;42618;51.226;4.910;2023-04-03T15:45:19;7.82;;;3.80;;
56736;SDS011;42618;51.226;4.910;2023-04-03T15:47:45;5.43;;;1.80;;
56736;SDS011;42618;51.226;4.910;2023-04-03T15:50:12;4.45;;;1.27;;
56736;SDS011;42618;51.226;4.910;2023-04-03T15:52:39;2.67;;;0.90;;
56736;SDS011;42618;51.226;4.910;2023-04-03T15:55:06;2.83;;;0.73;;
56736;SDS011;42618;51.226;4.910;2023-04-03T15:57:32;3.90;;;1.70;;
56736;SDS011;42618;51.226;4.910;2023-04-03T16:00:04;2.50;;;0.70;;
56736;SDS011;42618;51.226;4.910;2023-04-03T16:02:32;3.10;;;0.73;;
56736;SDS011;42618;51.226;4.910;2023-04-03T16:07:26;5.03;;;1.48;;
56736;SDS011;42618;51.226;4.910;2023-04-03T16:09:52;4.35;;;1.00;;
56736;SDS011;42618;51.226;4.910;2023-04-03T16:12:19;1.52;;;0.88;;
56736;SDS011;42618;51.226;4.910;2023-04-03T16:14:46;4.75;;;0.63;;
56736;SDS011;42618;51.226;4.910;2023-04-03T16:17:12;2.67;;;0.88;;
56736;SDS011;42618;51.226;4.910;2023-04-03T16:19:39;3.17;;;0.80;;
56736;SDS011;42618;51.226;4.910;2023-04-03T16:22:06;2.25;;;1.05;;
56736;SDS011;42618;51.226;4.910;2023-04-03T16:24:32;3.20;;;1.42;;
56736;SDS011;42618;51.226;4.910;2023-04-03T16:26:59;1.35;;;0.90;;
56736;SDS011;42618;51.226;4.910;2023-04-03T16:29:26;2.20;;;0.80;;
56736;SDS011;42618;51.226;4.910;2023-04-03T16:31:52;1.63;;;0.80;;
56736;SDS011;42618;51.226;4.910;2023-04-03T16:34:19;2.63;;;0.90;;
56736;SDS011;42618;51.226;4.910;2023-04-03T16:36:46;2.92;;;1.20;;
56736;SDS011;42618;51.226;4.910;2023-04-03T16:39:12;4.82;;;2.38;;
56736;SDS011;42618;51.226;4.910;2023-04-03T16:41:39;4.18;;;1.48;;
56736;SDS011;42618;51.226;4.910;2023-04-03T16:44:06;2.65;;;1.15;;
56736;SDS011;42618;51.226;4.910;2023-04-03T16:46:33;2.83;;;1.25;;